Gadsden, South Carolina
Current Conditions -  °F | °C
As of 12:58 AM on Friday 28 Nov 2014 (Local Time) from KMMT Reporting Station
Clear Clear  
Wind Chill: 28°   Ceiling: Unl
Heat Index: 33°   Visibility: 10mi
Dew Point: 26°   Wind: 6mph
Humidity: 74%   Direction: 320°NW
Pressure: 30.31"   Gusts: NA
Location:  33.85°N, 80.77°W
Report Text: KMMT 280558Z AUTO 32005KT 10SM CLR 01/M03 A3031 RMK AO2 SLP268 T00071035 10058 21003 50004
Loading
Personal Weather Stations






























Interactive Weather Map New forecast layout! Learn more

10-Day Weather Forecast

Advertisements
Track Severe Weather on mobile